Time;durP1;ratioP1;P1;durP2;ratioP2;P2;SDS_P1;SDS_P2;PMS_P1;PMS_P2;Temp;Humidity;BMP_temperature;BMP_pressure;BME280_temperature;BME280_humidity;BME280_pressure;Samples;Min_cycle;Max_cycle;Signal;HPM_P1;HPM_P2
2023/04/28 00:00:04;;;;;;;;;;;15.00;99.90;;;;;;5112286;28;20014;-72
2023/04/28 00:02:30;;;;;;;;;;;15.00;99.90;;;;;;5112456;28;20275;-74
2023/04/28 00:04:56;;;;;;;;;;;14.90;99.90;;;;;;5112603;28;20308;-73
2023/04/28 00:07:22;;;;;;;;;;;14.90;99.90;;;;;;5112473;28;20378;-72
2023/04/28 00:09:48;;;;;;;;;;;14.90;99.90;;;;;;5112763;28;19904;-73
2023/04/28 00:12:14;;;;;;;;;;;14.90;99.90;;;;;;5112570;28;19919;-73
2023/04/28 00:14:39;;;;;;;;;;;14.80;99.90;;;;;;5112571;28;19904;-74
2023/04/28 00:17:05;;;;;;;;;;;14.70;99.90;;;;;;5112377;28;19904;-75
2023/04/28 00:19:31;;;;;;;;;;;14.70;99.90;;;;;;5111993;28;20236;-75
2023/04/28 00:21:57;;;;;;;;;;;14.60;99.90;;;;;;5112316;28;19913;-74
2023/04/28 00:24:23;;;;;;;;;;;14.60;99.90;;;;;;5112171;28;19908;-73
2023/04/28 00:26:48;;;;;;;;;;;14.60;99.90;;;;;;5111972;28;19984;-74
2023/04/28 00:29:14;;;;;;;;;;;14.60;99.90;;;;;;5112430;28;19911;-74
2023/04/28 00:31:40;;;;;;;;;;;14.50;99.90;;;;;;5111900;28;20342;-74
2023/04/28 00:34:06;;;;;;;;;;;14.50;99.90;;;;;;5111766;28;19904;-75
2023/04/28 00:36:32;;;;;;;;;;;14.50;99.90;;;;;;5111882;28;19919;-72
2023/04/28 00:38:58;;;;;;;;;;;14.50;99.90;;;;;;5111676;28;20006;-74
2023/04/28 00:41:24;;;;;;;;;;;14.50;99.90;;;;;;5111915;28;19903;-73
2023/04/28 00:43:50;;;;;;;;;;;14.50;99.90;;;;;;5111674;28;19907;-74
2023/04/28 00:46:20;;;;;;;;;;;14.60;99.90;;;;;;5110440;28;19903;-72
2023/04/28 00:48:47;;;;;;;;;;;14.60;99.90;;;;;;5111681;28;20006;-73
2023/04/28 00:51:13;;;;;;;;;;;14.70;99.90;;;;;;5111947;28;20010;-72
2023/04/28 00:53:38;;;;;;;;;;;14.70;99.90;;;;;;5111764;28;20372;-74
2023/04/28 00:56:04;;;;;;;;;;;14.70;99.90;;;;;;5111610;28;19903;-72
2023/04/28 00:58:31;;;;;;;;;;;14.70;99.90;;;;;;5111686;28;19954;-73
2023/04/28 01:01:07;;;;;;;;;;;14.80;99.90;;;;;;5111724;28;20320;-74
2023/04/28 01:03:34;;;;;;;;;;;14.70;99.90;;;;;;5109922;28;19931;-72
2023/04/28 01:06:00;;;;;;;;;;;14.70;99.90;;;;;;5111611;28;19903;-74
2023/04/28 01:08:29;;;;;;;;;;;14.70;99.90;;;;;;5111624;28;19903;-72
2023/04/28 01:10:55;;;;;;;;;;;14.70;99.90;;;;;;5111818;28;20339;-69
2023/04/28 01:13:21;;;;;;;;;;;14.80;99.90;;;;;;5109962;28;20019;-73
2023/04/28 01:15:47;;;;;;;;;;;14.80;99.90;;;;;;5111895;28;19991;-74
2023/04/28 01:18:13;;;;;;;;;;;14.90;99.90;;;;;;5111255;28;19915;-73
2023/04/28 01:20:39;;;;;;;;;;;15.00;99.90;;;;;;5111763;28;20340;-74
2023/04/28 01:23:10;;;;;;;;;;;14.90;99.90;;;;;;5111471;28;19915;-72
2023/04/28 01:25:36;;;;;;;;;;;14.90;99.90;;;;;;5111384;28;19966;-71
2023/04/28 01:28:01;;;;;;;;;;;14.90;99.90;;;;;;5111457;28;19911;-72
2023/04/28 01:30:27;;;;;;;;;;;14.90;99.90;;;;;;5114798;28;20409;-73
2023/04/28 01:32:53;;;;;;;;;;;15.00;99.90;;;;;;5115195;28;19991;-71
2023/04/28 01:35:19;;;;;;;;;;;14.90;99.90;;;;;;5115759;28;19922;-73
2023/04/28 01:37:44;;;;;;;;;;;14.90;99.90;;;;;;5115294;28;19956;-73
2023/04/28 01:40:11;;;;;;;;;;;14.90;99.90;;;;;;5115188;28;19982;-73
2023/04/28 01:42:36;;;;;;;;;;;15.00;99.90;;;;;;5115587;28;19904;-74
2023/04/28 01:45:04;;;;;;;;;;;15.00;99.90;;;;;;5114864;28;19922;-72
2023/04/28 01:47:30;;;;;;;;;;;15.00;99.90;;;;;;5115215;28;19947;-73
2023/04/28 01:49:56;;;;;;;;;;;14.90;99.90;;;;;;5115503;28;19904;-73
2023/04/28 01:52:23;;;;;;;;;;;14.80;99.90;;;;;;5115650;28;19903;-73
2023/04/28 01:54:49;;;;;;;;;;;14.80;99.90;;;;;;5115073;28;19910;-73
2023/04/28 01:57:15;;;;;;;;;;;14.70;99.90;;;;;;5115228;28;20297;-72
2023/04/28 01:59:41;;;;;;;;;;;14.60;99.90;;;;;;5114767;28;19933;-73
2023/04/28 02:02:06;;;;;;;;;;;14.60;99.90;;;;;;5114762;28;20312;-72
2023/04/28 02:04:32;;;;;;;;;;;14.40;99.90;;;;;;5114691;28;19912;-73
2023/04/28 02:06:58;;;;;;;;;;;14.40;99.90;;;;;;5114713;28;20369;-73
2023/04/28 02:09:24;;;;;;;;;;;14.50;99.90;;;;;;5113341;28;19903;-73
2023/04/28 02:11:50;;;;;;;;;;;14.50;99.90;;;;;;5114472;28;19946;-72
2023/04/28 02:14:16;;;;;;;;;;;14.40;99.90;;;;;;5114491;28;19965;-74
2023/04/28 02:16:41;;;;;;;;;;;14.50;99.90;;;;;;5114809;28;19926;-74
2023/04/28 02:19:07;;;;;;;;;;;14.40;99.90;;;;;;5114251;28;19922;-74
2023/04/28 02:21:33;;;;;;;;;;;14.40;99.90;;;;;;5114721;28;19930;-72
2023/04/28 02:23:59;;;;;;;;;;;14.30;99.90;;;;;;5114377;28;19935;-72
2023/04/28 02:26:25;;;;;;;;;;;14.20;99.90;;;;;;5114455;28;20378;-73
2023/04/28 02:28:50;;;;;;;;;;;14.20;99.90;;;;;;5114596;28;19952;-74
2023/04/28 02:31:16;;;;;;;;;;;14.30;99.90;;;;;;5114279;28;19904;-72
2023/04/28 02:33:42;;;;;;;;;;;14.20;99.90;;;;;;5114242;28;20332;-73
2023/04/28 02:36:09;;;;;;;;;;;14.00;99.90;;;;;;5114615;28;19903;-74
2023/04/28 02:38:35;;;;;;;;;;;14.00;99.90;;;;;;5112467;28;19996;-73
2023/04/28 02:41:03;;;;;;;;;;;13.90;99.90;;;;;;5118670;22;20295;-73
2023/04/28 02:43:31;;;;;;;;;;;14.00;99.90;;;;;;5071063;28;20383;-72
2023/04/28 02:45:57;;;;;;;;;;;14.00;99.90;;;;;;5073139;28;19912;-74
2023/04/28 02:48:23;;;;;;;;;;;13.90;99.90;;;;;;5070978;28;19924;-74
2023/04/28 02:50:50;;;;;;;;;;;14.00;99.90;;;;;;5072759;28;20058;-72
2023/04/28 02:53:15;;;;;;;;;;;14.00;99.90;;;;;;5072450;28;19944;-72
2023/04/28 02:55:41;;;;;;;;;;;13.80;99.90;;;;;;5073130;28;19991;-72
2023/04/28 02:58:07;;;;;;;;;;;13.90;99.90;;;;;;5073082;28;19927;-71
2023/04/28 03:00:33;;;;;;;;;;;14.00;99.90;;;;;;5073621;28;20371;-72
2023/04/28 03:02:59;;;;;;;;;;;14.00;99.90;;;;;;5072489;28;20000;-74
2023/04/28 03:05:25;;;;;;;;;;;13.90;99.90;;;;;;5073328;28;19908;-73
2023/04/28 03:07:51;;;;;;;;;;;13.90;99.90;;;;;;5072899;28;19904;-71
2023/04/28 03:10:17;;;;;;;;;;;13.90;99.90;;;;;;5073192;28;19905;-71
2023/04/28 03:12:42;;;;;;;;;;;13.90;99.90;;;;;;5074012;28;19904;-74
2023/04/28 03:15:08;;;;;;;;;;;14.00;99.90;;;;;;5072930;28;20221;-72
2023/04/28 03:17:37;;;;;;;;;;;14.00;99.90;;;;;;5072750;28;19915;-71
2023/04/28 03:20:04;;;;;;;;;;;14.10;99.90;;;;;;5072748;28;20353;-73
2023/04/28 03:22:30;;;;;;;;;;;14.10;99.90;;;;;;5072457;28;20010;-72
2023/04/28 03:24:55;;;;;;;;;;;14.10;99.90;;;;;;5073118;28;19945;-73
2023/04/28 03:27:22;;;;;;;;;;;14.20;99.90;;;;;;5073278;28;20007;-72
2023/04/28 03:29:47;;;;;;;;;;;14.20;99.90;;;;;;5073543;28;19947;-73
2023/04/28 03:32:13;;;;;;;;;;;14.20;99.90;;;;;;5073013;28;19950;-73
2023/04/28 03:34:39;;;;;;;;;;;14.30;99.90;;;;;;5073215;28;19910;-73
2023/04/28 03:37:05;;;;;;;;;;;14.30;99.90;;;;;;5071547;28;19908;-72
2023/04/28 03:39:31;;;;;;;;;;;14.30;99.90;;;;;;5071496;28;19912;-74
2023/04/28 03:41:56;;;;;;;;;;;14.30;99.90;;;;;;5072830;28;20449;-74
2023/04/28 03:44:22;;;;;;;;;;;14.40;99.90;;;;;;5072837;28;19959;-74
2023/04/28 03:46:48;;;;;;;;;;;14.40;99.90;;;;;;5072876;28;19904;-73
2023/04/28 03:49:14;;;;;;;;;;;14.40;99.90;;;;;;5071854;28;19912;-72
2023/04/28 03:51:40;;;;;;;;;;;14.40;99.90;;;;;;5072330;28;19904;-73
2023/04/28 03:54:06;;;;;;;;;;;14.50;99.90;;;;;;5072598;28;19954;-74
2023/04/28 03:56:32;;;;;;;;;;;14.50;99.90;;;;;;5072600;28;19959;-74
2023/04/28 03:58:58;;;;;;;;;;;14.40;99.90;;;;;;5072986;28;20376;-74
2023/04/28 04:01:24;;;;;;;;;;;14.40;99.90;;;;;;5070853;28;19995;-72
2023/04/28 04:03:50;;;;;;;;;;;14.40;99.90;;;;;;5072328;28;19908;-74
2023/04/28 04:06:16;;;;;;;;;;;14.30;99.90;;;;;;5072182;28;19905;-73
2023/04/28 04:08:42;;;;;;;;;;;14.30;99.90;;;;;;5072293;28;19911;-72
2023/04/28 04:11:08;;;;;;;;;;;14.40;99.90;;;;;;5071572;28;19905;-71
2023/04/28 04:13:34;;;;;;;;;;;14.30;99.90;;;;;;5072369;28;19911;-72
2023/04/28 04:15:59;;;;;;;;;;;14.30;99.90;;;;;;5072260;28;19908;-74
2023/04/28 04:18:26;;;;;;;;;;;14.30;99.90;;;;;;5073167;28;19952;-76
2023/04/28 04:20:54;;;;;;;;;;;14.40;99.90;;;;;;5073067;28;19908;-75
2023/04/28 04:23:20;;;;;;;;;;;14.40;99.90;;;;;;5072938;28;20011;-75
2023/04/28 04:25:46;;;;;;;;;;;14.50;99.90;;;;;;5072870;28;19912;-75
2023/04/28 04:28:12;;;;;;;;;;;14.50;99.90;;;;;;5072843;28;19908;-75
2023/04/28 04:30:39;;;;;;;;;;;14.40;99.90;;;;;;5073225;28;19908;-72
2023/04/28 04:33:05;;;;;;;;;;;14.40;99.90;;;;;;5071213;28;19951;-75
2023/04/28 04:35:30;;;;;;;;;;;14.40;99.90;;;;;;5071549;28;20364;-74
2023/04/28 04:37:56;;;;;;;;;;;14.40;99.90;;;;;;5071297;28;19905;-76
2023/04/28 04:40:22;;;;;;;;;;;14.40;99.90;;;;;;5072583;28;19973;-74
2023/04/28 04:42:48;;;;;;;;;;;14.40;99.90;;;;;;5072436;28;19917;-76
2023/04/28 04:45:14;;;;;;;;;;;14.40;99.90;;;;;;5071188;28;19916;-74
2023/04/28 04:47:40;;;;;;;;;;;14.40;99.90;;;;;;5071101;28;19908;-75
2023/04/28 04:50:06;;;;;;;;;;;14.40;99.90;;;;;;5072501;28;19994;-73
2023/04/28 04:52:32;;;;;;;;;;;14.40;99.90;;;;;;5073048;28;19905;-76
2023/04/28 04:54:58;;;;;;;;;;;14.40;99.90;;;;;;5072651;28;19939;-77
2023/04/28 04:57:24;;;;;;;;;;;14.50;99.90;;;;;;5072579;28;19904;-74
2023/04/28 04:59:50;;;;;;;;;;;14.50;99.90;;;;;;5070985;28;20303;-75
2023/04/28 05:02:16;;;;;;;;;;;14.60;99.90;;;;;;5072218;28;19912;-74
2023/04/28 05:04:42;;;;;;;;;;;14.60;99.90;;;;;;5070352;28;20275;-76
2023/04/28 05:07:08;;;;;;;;;;;14.70;99.90;;;;;;5072703;28;19995;-74
2023/04/28 05:09:34;;;;;;;;;;;14.70;99.90;;;;;;5070939;28;19959;-76
2023/04/28 05:12:00;;;;;;;;;;;14.70;99.90;;;;;;5072245;28;19904;-74
2023/04/28 05:14:25;;;;;;;;;;;15.20;99.90;;;;;;5071546;28;19911;-77
2023/04/28 05:16:51;;;;;;;;;;;16.10;99.90;;;;;;5072269;28;19911;-75
2023/04/28 05:19:17;;;;;;;;;;;17.00;99.90;;;;;;5072118;28;20395;-75
2023/04/28 05:21:43;;;;;;;;;;;18.10;99.90;;;;;;5072592;28;20288;-75
2023/04/28 05:24:09;;;;;;;;;;;18.60;99.90;;;;;;5072773;28;20003;-76
2023/04/28 05:26:36;;;;;;;;;;;19.30;99.90;;;;;;5072839;28;19909;-72
2023/04/28 05:29:02;;;;;;;;;;;19.50;99.90;;;;;;5072694;28;19905;-71
2023/04/28 05:31:28;;;;;;;;;;;20.10;99.90;;;;;;5071348;28;19927;-76
2023/04/28 05:33:54;;;;;;;;;;;21.00;99.90;;;;;;5071021;28;19965;-76
2023/04/28 05:36:19;;;;;;;;;;;21.90;99.90;;;;;;5070762;28;19908;-74
2023/04/28 05:38:45;;;;;;;;;;;22.80;99.90;;;;;;5070428;28;19912;-76
2023/04/28 05:41:11;;;;;;;;;;;23.60;99.90;;;;;;5071873;28;20361;-76
2023/04/28 05:43:37;;;;;;;;;;;24.00;99.90;;;;;;5072052;28;19993;-76
2023/04/28 05:46:03;;;;;;;;;;;23.70;99.90;;;;;;5071812;28;19970;-76
2023/04/28 05:48:29;;;;;;;;;;;25.30;99.90;;;;;;5071516;28;19904;-76
2023/04/28 05:50:54;;;;;;;;;;;25.20;99.90;;;;;;5071460;28;20367;-76
2023/04/28 05:53:20;;;;;;;;;;;26.90;99.90;;;;;;5070924;28;19904;-75
2023/04/28 05:55:47;;;;;;;;;;;28.60;99.90;;;;;;5070929;28;19905;-76
2023/04/28 05:58:12;;;;;;;;;;;29.30;99.90;;;;;;5070898;28;19912;-77
2023/04/28 06:00:38;;;;;;;;;;;31.00;99.90;;;;;;5070911;28;19920;-76
2023/04/28 06:03:04;;;;;;;;;;;32.00;99.90;;;;;;5066585;28;19905;-78
2023/04/28 06:05:30;;;;;;;;;;;32.50;99.90;;;;;;5050963;28;20302;-76
2023/04/28 06:07:58;;;;;;;;;;;33.10;99.90;;;;;;5051999;28;20357;-78
2023/04/28 06:10:25;;;;;;;;;;;33.10;99.20;;;;;;5051353;28;19904;-77
2023/04/28 06:12:50;;;;;;;;;;;33.70;98.10;;;;;;5051208;28;19970;-77
2023/04/28 06:15:16;;;;;;;;;;;33.30;97.80;;;;;;5052880;28;19909;-77
2023/04/28 06:17:42;;;;;;;;;;;33.60;97.40;;;;;;5055506;28;20229;-75
2023/04/28 06:20:12;;;;;;;;;;;34.20;97.30;;;;;;5054547;28;19919;-78
2023/04/28 06:22:37;;;;;;;;;;;34.10;96.70;;;;;;5055776;28;19911;-77
2023/04/28 06:25:03;;;;;;;;;;;35.20;96.00;;;;;;5055952;28;20303;-76
2023/04/28 06:27:31;;;;;;;;;;;35.40;95.20;;;;;;5055880;28;19905;-77
2023/04/28 06:29:57;;;;;;;;;;;34.90;95.30;;;;;;5055688;28;19956;-75
2023/04/28 06:32:23;;;;;;;;;;;34.30;95.70;;;;;;5069531;28;20315;-75
2023/04/28 06:34:49;;;;;;;;;;;34.40;95.20;;;;;;5075393;28;19911;-77
2023/04/28 06:37:15;;;;;;;;;;;34.30;94.60;;;;;;5075738;28;20214;-76
2023/04/28 06:39:41;;;;;;;;;;;33.40;95.90;;;;;;5075458;28;19960;-77
2023/04/28 06:42:07;;;;;;;;;;;33.70;95.50;;;;;;5074531;28;20377;-76
2023/04/28 06:44:32;;;;;;;;;;;34.40;95.30;;;;;;5075007;28;19928;-79
2023/04/28 06:46:59;;;;;;;;;;;35.00;94.40;;;;;;5075174;28;19909;-79
2023/04/28 06:49:25;;;;;;;;;;;35.10;93.90;;;;;;5073359;28;19931;-78
2023/04/28 06:51:51;;;;;;;;;;;34.50;94.50;;;;;;5073475;28;20345;-78
2023/04/28 06:54:17;;;;;;;;;;;33.70;95.20;;;;;;5073473;28;19998;-79
2023/04/28 06:56:43;;;;;;;;;;;33.40;95.50;;;;;;5075368;28;19912;-81
2023/04/28 06:59:09;;;;;;;;;;;34.80;94.60;;;;;;5079196;28;19912;-78
2023/04/28 07:01:35;;;;;;;;;;;35.20;94.20;;;;;;5072852;28;20245;-77
2023/04/28 07:04:00;;;;;;;;;;;33.60;94.70;;;;;;5074051;28;19958;-76
2023/04/28 07:06:27;;;;;;;;;;;34.20;94.50;;;;;;5074241;28;19927;-75
2023/04/28 07:08:53;;;;;;;;;;;34.00;94.20;;;;;;5073923;28;19977;-77
2023/04/28 07:11:19;;;;;;;;;;;33.10;95.00;;;;;;5074057;28;20314;-78
2023/04/28 07:13:49;;;;;;;;;;;32.90;95.20;;;;;;5074189;28;19909;-78
2023/04/28 07:16:15;;;;;;;;;;;33.30;95.00;;;;;;5073592;28;19909;-74
2023/04/28 07:18:40;;;;;;;;;;;33.60;93.70;;;;;;5073488;28;20069;-73
2023/04/28 07:21:06;;;;;;;;;;;32.50;94.50;;;;;;5073652;28;19995;-72
2023/04/28 07:23:32;;;;;;;;;;;32.10;95.20;;;;;;5073165;28;20002;-73
2023/04/28 07:25:58;;;;;;;;;;;30.90;97.80;;;;;;5073292;28;20359;-73
2023/04/28 07:28:24;;;;;;;;;;;29.80;97.40;;;;;;5073056;28;19904;-72
2023/04/28 07:30:50;;;;;;;;;;;29.30;97.20;;;;;;5073017;28;19905;-70
2023/04/28 07:33:16;;;;;;;;;;;27.90;97.90;;;;;;5073512;28;19904;-72
2023/04/28 07:35:42;;;;;;;;;;;27.60;99.50;;;;;;5073915;28;19950;-72
2023/04/28 07:38:08;;;;;;;;;;;27.10;98.30;;;;;;5073274;28;19912;-71
2023/04/28 07:40:34;;;;;;;;;;;26.50;98.50;;;;;;5073187;28;19908;-72
2023/04/28 07:43:00;;;;;;;;;;;26.10;98.80;;;;;;5073039;28;19977;-72
2023/04/28 07:45:26;;;;;;;;;;;26.10;99.90;;;;;;5073384;28;19912;-71
2023/04/28 07:47:51;;;;;;;;;;;26.10;99.90;;;;;;5073508;28;19908;-73
2023/04/28 07:50:17;;;;;;;;;;;26.10;99.90;;;;;;5072339;28;19904;-73
2023/04/28 07:52:45;;;;;;;;;;;26.30;99.90;;;;;;5072658;28;19939;-71
2023/04/28 07:55:11;;;;;;;;;;;25.90;99.90;;;;;;5072569;28;19904;-72
2023/04/28 07:57:36;;;;;;;;;;;26.10;99.90;;;;;;5072637;28;19905;-74
2023/04/28 08:00:04;;;;;;;;;;;26.40;99.90;;;;;;5072277;28;19913;-73
2023/04/28 08:02:30;;;;;;;;;;;26.10;99.90;;;;;;5072515;28;19999;-71
2023/04/28 08:04:55;;;;;;;;;;;26.30;99.90;;;;;;5070655;28;20440;-72
2023/04/28 08:07:21;;;;;;;;;;;26.30;99.90;;;;;;5071958;28;19904;-73
2023/04/28 08:09:47;;;;;;;;;;;26.70;99.90;;;;;;5072489;28;19915;-73
2023/04/28 08:12:13;;;;;;;;;;;26.80;99.90;;;;;;5071973;28;20011;-72
2023/04/28 08:14:39;;;;;;;;;;;26.10;99.90;;;;;;5072261;28;19954;-73
2023/04/28 08:17:05;;;;;;;;;;;25.80;99.90;;;;;;5072268;28;19912;-73
2023/04/28 08:19:32;;;;;;;;;;;25.40;99.90;;;;;;5072019;28;19912;-70
2023/04/28 08:22:04;;;;;;;;;;;25.10;99.90;;;;;;5071882;28;19908;-72
2023/04/28 08:24:33;;;;;;;;;;;25.20;99.90;;;;;;5072081;28;19904;-73
2023/04/28 08:27:04;;;;;;;;;;;25.00;99.90;;;;;;5072249;28;19916;-73
2023/04/28 08:29:30;;;;;;;;;;;25.20;99.90;;;;;;5071869;28;20307;-77
2023/04/28 08:31:57;;;;;;;;;;;25.10;99.90;;;;;;5070752;28;19911;-76
2023/04/28 08:34:23;;;;;;;;;;;25.40;99.90;;;;;;5071881;28;20280;-75
2023/04/28 08:36:48;;;;;;;;;;;25.60;99.90;;;;;;5071088;28;19908;-75
2023/04/28 08:39:14;;;;;;;;;;;24.80;99.90;;;;;;5070876;28;19916;-76
2023/04/28 08:41:41;;;;;;;;;;;24.80;99.90;;;;;;5072229;28;20057;-77
2023/04/28 08:44:10;;;;;;;;;;;25.10;99.90;;;;;;5072359;28;19922;-76
2023/04/28 08:46:40;;;;;;;;;;;25.10;99.90;;;;;;5070603;28;20327;-76
2023/04/28 08:49:11;;;;;;;;;;;24.40;99.90;;;;;;5053547;28;19942;-76
2023/04/28 08:51:43;;;;;;;;;;;24.20;99.90;;;;;;5071874;28;19911;-75
2023/04/28 08:54:10;;;;;;;;;;;24.60;99.90;;;;;;5071937;28;20198;-76
2023/04/28 08:56:35;;;;;;;;;;;24.00;99.90;;;;;;5072016;28;20397;-76
2023/04/28 08:59:05;;;;;;;;;;;24.20;99.90;;;;;;5071784;28;19962;-77
2023/04/28 09:01:31;;;;;;;;;;;24.10;99.90;;;;;;5072058;28;19904;-76
2023/04/28 09:04:01;;;;;;;;;;;23.90;99.90;;;;;;5071815;28;19930;-75
2023/04/28 09:06:37;;;;;;;;;;;23.70;99.90;;;;;;5071199;28;19912;-76
2023/04/28 09:09:19;;;;;;;;;;;23.50;99.90;;;;;;5070454;28;20053;-76
2023/04/28 09:11:57;;;;;;;;;;;23.70;99.90;;;;;;5071666;28;19920;-75
2023/04/28 09:14:22;;;;;;;;;;;23.60;99.90;;;;;;5067734;28;19904;-76
2023/04/28 09:16:48;;;;;;;;;;;23.20;99.90;;;;;;5070580;28;19905;-76
2023/04/28 09:19:18;;;;;;;;;;;23.20;99.90;;;;;;5071373;28;19913;-76
2023/04/28 09:21:51;;;;;;;;;;;23.40;99.90;;;;;;5071269;28;19904;-76
2023/04/28 09:24:27;;;;;;;;;;;22.70;99.90;;;;;;5071394;28;20359;-78
2023/04/28 09:26:53;;;;;;;;;;;22.50;99.90;;;;;;5070991;28;19916;-76
2023/04/28 09:29:19;;;;;;;;;;;22.80;99.90;;;;;;5071520;28;19908;-74
2023/04/28 09:31:45;;;;;;;;;;;22.70;99.90;;;;;;5070880;28;19904;-74
2023/04/28 09:34:11;;;;;;;;;;;22.70;99.90;;;;;;5069365;28;20242;-76
2023/04/28 09:36:37;;;;;;;;;;;22.70;99.90;;;;;;5071165;28;19957;-77
2023/04/28 09:39:03;;;;;;;;;;;22.90;99.90;;;;;;5070841;28;19946;-76
2023/04/28 09:41:42;;;;;;;;;;;23.10;99.90;;;;;;5070478;28;19915;-76
2023/04/28 09:44:17;;;;;;;;;;;22.90;99.90;;;;;;5071304;28;19916;-77
2023/04/28 09:46:44;;;;;;;;;;;22.70;99.90;;;;;;5071533;28;19980;-77
2023/04/28 09:49:11;;;;;;;;;;;22.70;99.90;;;;;;5070814;28;19952;-76
2023/04/28 09:51:36;;;;;;;;;;;22.50;99.90;;;;;;5074225;28;19904;-73
2023/04/28 09:54:03;;;;;;;;;;;22.30;99.90;;;;;;5074629;28;19912;-76
2023/04/28 09:56:29;;;;;;;;;;;22.30;99.90;;;;;;5074710;28;19911;-77
2023/04/28 09:58:59;;;;;;;;;;;22.60;99.90;;;;;;5074537;28;19996;-77
2023/04/28 10:01:31;;;;;;;;;;;22.50;99.90;;;;;;5074651;28;20375;-77
2023/04/28 10:03:58;;;;;;;;;;;22.20;99.90;;;;;;5074870;28;19908;-75
2023/04/28 10:06:24;;;;;;;;;;;21.80;99.90;;;;;;5075005;28;20360;-76
2023/04/28 10:08:51;;;;;;;;;;;21.60;99.90;;;;;;5074681;28;19915;-76
2023/04/28 10:11:17;;;;;;;;;;;22.10;99.90;;;;;;5074455;28;19911;-73
2023/04/28 10:13:43;;;;;;;;;;;22.20;99.90;;;;;;5072625;28;20272;-76
2023/04/28 10:16:13;;;;;;;;;;;22.20;99.90;;;;;;5074445;28;19908;-76
2023/04/28 10:18:39;;;;;;;;;;;22.30;99.90;;;;;;5073343;28;19908;-75
2023/04/28 10:21:06;;;;;;;;;;;22.30;99.90;;;;;;5073078;28;19963;-76
2023/04/28 10:23:50;;;;;;;;;;;22.40;99.90;;;;;;5073972;28;19908;-76
2023/04/28 10:26:20;;;;;;;;;;;22.00;99.90;;;;;;5074371;28;19909;-77
2023/04/28 10:28:47;;;;;;;;;;;22.00;99.90;;;;;;5089561;28;19930;-76
2023/04/28 10:31:17;;;;;;;;;;;21.90;99.90;;;;;;5073715;28;19911;-74
2023/04/28 10:33:43;;;;;;;;;;;22.20;99.90;;;;;;5073706;28;19950;-77
2023/04/28 10:36:09;;;;;;;;;;;22.30;99.90;;;;;;5074055;28;19908;-78
2023/04/28 10:39:00;;;;;;;;;;;22.40;99.90;;;;;;5074264;28;19912;-76
2023/04/28 10:41:32;;;;;;;;;;;22.60;99.90;;;;;;5073731;28;20382;-75
2023/04/28 10:43:58;;;;;;;;;;;22.60;99.90;;;;;;5073909;28;19940;-77
2023/04/28 10:46:24;;;;;;;;;;;22.20;99.90;;;;;;5072640;28;19975;-78
2023/04/28 10:48:50;;;;;;;;;;;21.90;99.90;;;;;;5071764;28;20016;-76
2023/04/28 10:51:15;;;;;;;;;;;21.90;99.90;;;;;;5071791;28;19915;-76
2023/04/28 10:53:41;;;;;;;;;;;22.30;99.90;;;;;;5072199;28;20416;-75
2023/04/28 10:56:07;;;;;;;;;;;22.40;99.90;;;;;;5073328;28;19905;-77
2023/04/28 10:58:35;;;;;;;;;;;22.40;99.90;;;;;;5073316;28;20275;-76
2023/04/28 11:01:25;;;;;;;;;;;22.30;99.90;;;;;;5072878;28;19958;-75
2023/04/28 11:04:02;;;;;;;;;;;22.10;99.90;;;;;;5072896;28;19904;-76
2023/04/28 11:06:30;;;;;;;;;;;22.20;99.90;;;;;;5073595;28;19905;-78
2023/04/28 11:08:59;;;;;;;;;;;21.90;99.90;;;;;;5073901;28;19908;-78
2023/04/28 11:11:25;;;;;;;;;;;22.00;99.90;;;;;;5073964;28;19905;-77
2023/04/28 11:13:53;;;;;;;;;;;22.30;99.90;;;;;;5072621;28;19905;-77
2023/04/28 11:16:20;;;;;;;;;;;22.20;99.90;;;;;;5072741;28;20295;-76
2023/04/28 11:18:49;;;;;;;;;;;22.50;99.90;;;;;;5073340;28;20157;-76
2023/04/28 11:21:16;;;;;;;;;;;22.50;99.90;;;;;;5073961;28;20252;-76
2023/04/28 11:23:42;;;;;;;;;;;22.40;99.90;;;;;;5074263;28;20003;-78
2023/04/28 11:26:08;;;;;;;;;;;22.30;99.90;;;;;;5074306;28;20371;-78
2023/04/28 11:28:35;;;;;;;;;;;22.10;99.90;;;;;;5073872;28;20033;-78
2023/04/28 11:31:11;;;;;;;;;;;22.30;99.90;;;;;;5073643;28;19904;-76
2023/04/28 11:33:37;;;;;;;;;;;22.50;99.90;;;;;;5073930;28;19904;-77
2023/04/28 11:36:04;;;;;;;;;;;22.40;99.90;;;;;;5073765;28;20307;-79
2023/04/28 11:38:29;;;;;;;;;;;22.20;99.90;;;;;;5074090;28;19909;-77
2023/04/28 11:40:58;;;;;;;;;;;22.20;99.90;;;;;;5073770;28;19904;-74
2023/04/28 11:43:28;;;;;;;;;;;22.30;99.90;;;;;;5072211;28;19924;-78
2023/04/28 11:45:54;;;;;;;;;;;22.50;99.90;;;;;;5074254;28;19951;-77
2023/04/28 11:48:21;;;;;;;;;;;22.30;99.90;;;;;;5073406;28;20422;-78
2023/04/28 11:50:46;;;;;;;;;;;22.50;99.90;;;;;;5071170;28;19908;-77
2023/04/28 11:53:13;;;;;;;;;;;22.10;99.90;;;;;;5073443;28;20272;-78
2023/04/28 11:55:39;;;;;;;;;;;22.10;99.90;;;;;;5073314;28;19905;-79
2023/04/28 11:58:21;;;;;;;;;;;22.40;99.90;;;;;;5072961;28;19987;-78
2023/04/28 12:01:05;;;;;;;;;;;22.60;99.90;;;;;;5072571;28;19920;-79
2023/04/28 12:03:31;;;;;;;;;;;22.60;99.90;;;;;;5071072;28;19955;-77
2023/04/28 12:05:57;;;;;;;;;;;22.70;99.90;;;;;;5071606;28;19943;-76
2023/04/28 12:08:27;;;;;;;;;;;22.90;99.90;;;;;;5071833;28;19915;-75
2023/04/28 12:11:08;;;;;;;;;;;22.90;99.90;;;;;;5071464;28;19904;-77
2023/04/28 12:13:35;;;;;;;;;;;22.80;99.90;;;;;;5071199;28;20319;-77
2023/04/28 12:16:05;;;;;;;;;;;22.90;99.90;;;;;;5072852;28;19931;-78
2023/04/28 12:18:31;;;;;;;;;;;23.00;99.90;;;;;;5072970;28;19947;-78
2023/04/28 12:20:57;;;;;;;;;;;22.70;99.90;;;;;;5073023;28;19909;-78
2023/04/28 12:23:32;;;;;;;;;;;22.30;99.90;;;;;;5073638;28;19912;-78
2023/04/28 12:25:58;;;;;;;;;;;22.40;99.90;;;;;;5073247;28;19905;-78
2023/04/28 12:28:35;;;;;;;;;;;22.70;99.90;;;;;;5073153;28;19904;-79
2023/04/28 12:31:05;;;;;;;;;;;22.60;99.90;;;;;;5073484;28;19934;-78
2023/04/28 12:33:36;;;;;;;;;;;22.60;99.90;;;;;;5073109;28;19927;-77
2023/04/28 12:36:06;;;;;;;;;;;22.60;99.90;;;;;;5072385;28;19904;-78
2023/04/28 12:38:32;;;;;;;;;;;22.60;99.90;;;;;;5072938;28;19904;-79
2023/04/28 12:40:58;;;;;;;;;;;22.50;99.90;;;;;;5072502;28;19905;-79
2023/04/28 12:43:25;;;;;;;;;;;22.90;99.90;;;;;;5072414;28;20333;-80
2023/04/28 12:45:55;;;;;;;;;;;22.60;99.90;;;;;;5072868;28;19930;-79
2023/04/28 12:48:24;;;;;;;;;;;22.80;99.90;;;;;;5073298;28;19953;-79
2023/04/28 12:50:50;;;;;;;;;;;23.00;99.90;;;;;;5072354;28;19919;-79
2023/04/28 12:53:16;;;;;;;;;;;22.80;99.90;;;;;;5071811;28;19908;-78
2023/04/28 12:55:42;;;;;;;;;;;22.80;99.90;;;;;;5073161;28;19904;-79
2023/04/28 12:58:08;;;;;;;;;;;23.00;99.90;;;;;;5073797;28;19926;-76
2023/04/28 13:00:34;;;;;;;;;;;23.00;99.90;;;;;;5076164;28;19919;-77
2023/04/28 13:03:00;;;;;;;;;;;23.00;99.90;;;;;;5073610;28;20265;-78
2023/04/28 13:05:26;;;;;;;;;;;22.80;99.90;;;;;;5072750;28;19904;-78
2023/04/28 13:07:52;;;;;;;;;;;22.80;99.90;;;;;;5072756;28;19904;-77
2023/04/28 13:10:20;;;;;;;;;;;22.50;99.90;;;;;;5072746;28;19905;-79
2023/04/28 13:12:46;;;;;;;;;;;22.50;99.90;;;;;;5072440;28;19989;-78
2023/04/28 13:15:11;;;;;;;;;;;22.20;99.90;;;;;;5072340;28;19908;-79
2023/04/28 13:17:38;;;;;;;;;;;22.40;99.90;;;;;;5072674;28;19905;-78
2023/04/28 13:20:05;;;;;;;;;;;22.70;99.90;;;;;;5072555;28;19957;-77
2023/04/28 13:22:31;;;;;;;;;;;22.40;99.90;;;;;;5073256;28;20245;-77
2023/04/28 13:24:57;;;;;;;;;;;22.60;99.90;;;;;;5073876;28;19999;-77
2023/04/28 13:27:23;;;;;;;;;;;22.80;99.90;;;;;;5077094;28;19904;-78
2023/04/28 13:29:49;;;;;;;;;;;22.90;99.90;;;;;;5077403;28;19912;-77
2023/04/28 13:32:15;;;;;;;;;;;23.00;99.90;;;;;;5075165;28;19904;-77
2023/04/28 13:34:40;;;;;;;;;;;23.00;99.90;;;;;;5076747;28;20419;-77
2023/04/28 13:37:06;;;;;;;;;;;23.00;99.90;;;;;;5076016;28;19950;-76
2023/04/28 13:39:32;;;;;;;;;;;22.90;99.90;;;;;;5076154;28;19913;-76
2023/04/28 13:41:58;;;;;;;;;;;23.00;99.90;;;;;;5076063;28;20271;-75
2023/04/28 13:44:24;;;;;;;;;;;22.80;99.90;;;;;;5076293;28;19905;-76
2023/04/28 13:46:51;;;;;;;;;;;23.10;99.90;;;;;;5074438;28;19946;-78
2023/04/28 13:49:17;;;;;;;;;;;22.90;99.90;;;;;;5075407;28;19911;-79
2023/04/28 13:51:44;;;;;;;;;;;22.80;99.90;;;;;;5073600;28;20213;-77
2023/04/28 13:54:10;;;;;;;;;;;22.80;99.90;;;;;;5075554;28;19905;-71
2023/04/28 13:56:36;;;;;;;;;;;22.50;99.90;;;;;;5074954;28;19914;-77
2023/04/28 13:59:02;;;;;;;;;;;22.80;99.90;;;;;;5075552;28;20267;-79
2023/04/28 14:01:28;;;;;;;;;;;22.90;99.90;;;;;;5073685;28;19904;-79
2023/04/28 14:03:54;;;;;;;;;;;22.80;99.90;;;;;;5075172;28;20340;-80
2023/04/28 14:06:20;;;;;;;;;;;22.80;99.90;;;;;;5073457;28;19904;-79
2023/04/28 14:08:46;;;;;;;;;;;22.80;99.90;;;;;;5075286;28;19950;-78
2023/04/28 14:11:12;;;;;;;;;;;22.60;99.90;;;;;;5073642;28;19904;-79
2023/04/28 14:13:38;;;;;;;;;;;22.80;99.90;;;;;;5075187;28;20372;-79